Time;durP1;ratioP1;P1;durP2;ratioP2;P2;SDS_P1;SDS_P2;PMS_P1;PMS_P2;Temp;Humidity;BMP_temperature;BMP_pressure;BME280_temperature;BME280_humidity;BME280_pressure;Samples;Min_cycle;Max_cycle;Signal;HPM_P1;HPM_P2
2022/04/19 00:00:27;;;;;;;7.60;6.83;;;8.60;99.90;;;;;;5069614;28;20221;-67
2022/04/19 00:02:53;;;;;;;7.57;6.90;;;8.50;99.90;;;;;;5070575;28;20174;-67
2022/04/19 00:05:18;;;;;;;6.10;5.70;;;8.50;99.90;;;;;;5070256;28;20209;-67
2022/04/19 00:07:44;;;;;;;7.33;6.83;;;8.50;99.90;;;;;;5069451;28;20170;-68
2022/04/19 00:10:11;;;;;;;6.93;6.43;;;8.50;99.90;;;;;;5070599;28;20179;-67
2022/04/19 00:12:37;;;;;;;6.90;6.50;;;8.50;99.90;;;;;;5070846;28;20166;-67
2022/04/19 00:15:04;;;;;;;8.97;8.33;;;8.40;99.90;;;;;;5070031;28;20201;-66
2022/04/19 00:17:30;;;;;;;8.20;7.67;;;8.40;99.90;;;;;;5070696;28;20548;-66
2022/04/19 00:19:56;;;;;;;8.60;8.00;;;8.30;99.90;;;;;;5070067;28;20209;-67
2022/04/19 00:22:21;;;;;;;9.33;8.50;;;8.20;99.90;;;;;;5074237;28;20276;-67
2022/04/19 00:24:47;;;;;;;7.67;7.17;;;8.20;99.90;;;;;;5074121;28;20628;-66
2022/04/19 00:27:13;;;;;;;6.80;6.40;;;8.20;99.90;;;;;;5072498;28;20273;-67
2022/04/19 00:29:41;;;;;;;7.43;6.87;;;8.10;99.90;;;;;;5074233;28;20173;-67
2022/04/19 00:32:08;;;;;;;8.50;7.67;;;8.10;99.90;;;;;;5073849;28;20177;-66
2022/04/19 00:34:34;;;;;;;7.60;7.10;;;7.90;99.90;;;;;;5072558;28;20202;-65
2022/04/19 00:37:01;;;;;;;6.97;6.47;;;7.90;99.90;;;;;;5074069;28;20176;-66
2022/04/19 00:39:27;;;;;;;6.80;6.30;;;7.80;99.90;;;;;;5072988;28;20198;-66
2022/04/19 00:41:52;;;;;;;6.37;5.97;;;7.80;99.90;;;;;;5073885;28;20170;-66
2022/04/19 00:44:18;;;;;;;6.37;5.97;;;7.70;99.90;;;;;;5074235;28;20240;-66
2022/04/19 00:46:44;;;;;;;7.10;6.60;;;7.60;99.90;;;;;;5085354;28;20216;-65
2022/04/19 00:49:09;;;;;;;7.73;6.87;;;7.50;99.90;;;;;;5091859;28;20186;-66
2022/04/19 00:51:35;;;;;;;7.47;6.87;;;7.40;99.90;;;;;;5091737;28;20246;-65
2022/04/19 00:54:02;;;;;;;7.90;7.23;;;7.40;99.90;;;;;;5082243;28;20252;-66
2022/04/19 00:56:29;;;;;;;7.67;7.17;;;7.30;99.90;;;;;;5072356;28;20522;-66
2022/04/19 00:58:55;;;;;;;7.33;6.73;;;7.30;99.90;;;;;;5072518;28;20639;-66
2022/04/19 01:01:20;;;;;;;7.60;7.07;;;7.20;99.90;;;;;;5073692;28;20190;-66
2022/04/19 01:03:46;;;;;;;7.10;6.60;;;7.10;99.90;;;;;;5073756;28;20189;-65
2022/04/19 01:06:12;;;;;;;7.30;6.80;;;7.10;99.90;;;;;;5071574;28;20205;-66
2022/04/19 01:08:38;;;;;;;8.07;7.47;;;7.00;99.90;;;;;;5073884;28;20478;-66
2022/04/19 01:13:48;;;;;;;7.93;7.43;;;7.00;99.90;;;;;;5073821;28;20235;-65
2022/04/19 01:16:15;;;;;;;7.60;7.00;;;6.90;99.90;;;;;;5072889;28;20202;-66
2022/04/19 01:18:41;;;;;;;7.53;7.03;;;6.90;99.90;;;;;;5073122;28;20170;-66
2022/04/19 01:21:07;;;;;;;7.77;7.17;;;6.90;99.90;;;;;;5073153;28;20173;-66
2022/04/19 01:23:32;;;;;;;9.10;8.40;;;6.80;99.90;;;;;;5071789;28;20170;-66
2022/04/19 01:25:58;;;;;;;8.03;7.30;;;6.80;99.90;;;;;;5072853;28;20752;-66
2022/04/19 01:28:24;;;;;;;8.53;8.03;;;6.70;99.90;;;;;;5073039;28;20170;-65
2022/04/19 01:30:52;;;;;;;8.90;8.30;;;6.70;99.90;;;;;;5071294;28;20181;-65
2022/04/19 01:33:18;;;;;;;8.83;8.23;;;6.70;99.90;;;;;;5072780;28;20542;-65
2022/04/19 01:35:44;;;;;;;7.33;6.90;;;6.60;99.90;;;;;;5070994;28;20198;-65
2022/04/19 01:38:09;;;;;;;7.93;7.37;;;6.50;99.90;;;;;;5072808;28;20261;-66
2022/04/19 01:40:35;;;;;;;7.43;6.83;;;6.50;99.90;;;;;;5071372;28;20229;-65
2022/04/19 01:43:03;;;;;;;8.70;7.97;;;6.50;99.90;;;;;;5069450;28;20174;-63
2022/04/19 01:45:31;;;;;;;9.57;8.00;;;6.40;99.90;;;;;;5052580;28;20210;-65
2022/04/19 01:47:58;;;;;;;7.60;7.13;;;6.40;99.90;;;;;;5055454;28;20197;-66
2022/04/19 01:50:27;;;;;;;7.73;7.17;;;6.40;99.90;;;;;;5072680;28;20209;-68
2022/04/19 01:52:57;;;;;;;8.03;7.33;;;6.30;99.90;;;;;;5070557;28;20190;-66
2022/04/19 01:55:23;;;;;;;8.53;7.90;;;6.30;99.90;;;;;;5072265;28;20197;-66
2022/04/19 01:57:55;;;;;;;7.60;7.00;;;6.30;99.90;;;;;;5071784;28;20186;-66
2022/04/19 02:00:21;;;;;;;7.47;6.97;;;6.30;99.90;;;;;;5072644;28;20202;-66
2022/04/19 02:02:47;;;;;;;7.57;7.07;;;6.20;99.90;;;;;;5065440;28;20265;-66
2022/04/19 02:05:14;;;;;;;7.83;7.10;;;6.20;99.90;;;;;;5071921;28;20189;-66
2022/04/19 02:07:43;;;;;;;7.60;6.90;;;6.20;99.90;;;;;;5071040;28;20239;-66
2022/04/19 02:10:10;;;;;;;7.60;7.10;;;6.10;99.90;;;;;;5071295;28;20186;-66
2022/04/19 02:12:36;;;;;;;20.67;7.83;;;6.10;99.90;;;;;;5072154;28;20544;-66
2022/04/19 02:15:02;;;;;;;7.00;6.50;;;6.10;99.90;;;;;;5071819;28;20255;-66
2022/04/19 02:17:28;;;;;;;7.30;6.80;;;6.00;99.90;;;;;;5071995;28;20185;-66
2022/04/19 02:20:02;;;;;;;7.10;6.60;;;6.00;99.90;;;;;;5069739;28;20226;-66
2022/04/19 02:22:28;;;;;;;7.40;6.90;;;6.00;99.90;;;;;;5071638;28;20697;-67
2022/04/19 02:24:56;;;;;;;7.80;7.23;;;6.00;99.90;;;;;;5071738;28;20237;-65
2022/04/19 02:27:24;;;;;;;8.70;8.00;;;5.90;99.90;;;;;;5071865;28;20179;-66
2022/04/19 02:29:54;;;;;;;8.23;7.63;;;5.90;99.90;;;;;;5070669;28;20647;-67
2022/04/19 02:32:20;;;;;;;7.53;7.00;;;5.90;99.90;;;;;;5070478;28;20209;-67
2022/04/19 02:34:46;;;;;;;8.63;8.03;;;5.90;99.90;;;;;;5053511;28;20618;-67
2022/04/19 02:37:11;;;;;;;7.93;7.33;;;5.90;99.90;;;;;;5061365;28;20650;-67
2022/04/19 02:39:37;;;;;;;7.37;6.93;;;5.90;99.90;;;;;;5071838;28;20206;-66
2022/04/19 02:42:05;;;;;;;7.60;7.00;;;5.90;99.90;;;;;;5070045;28;20193;-66
2022/04/19 02:44:31;;;;;;;7.57;7.07;;;5.90;99.90;;;;;;5071134;28;20185;-66
2022/04/19 02:46:56;;;;;;;8.03;7.47;;;5.80;99.90;;;;;;5069532;28;20178;-67
2022/04/19 02:49:22;;;;;;;7.50;7.00;;;5.90;99.90;;;;;;5071747;28;20639;-67
2022/04/19 02:51:47;;;;;;;7.83;7.30;;;5.90;99.90;;;;;;5071407;28;20178;-67
2022/04/19 02:54:13;;;;;;;7.70;7.10;;;5.90;99.90;;;;;;5071464;28;20185;-67
2022/04/19 02:56:39;;;;;;;8.67;7.43;;;5.90;99.90;;;;;;5071200;28;20178;-65
2022/04/19 02:59:05;;;;;;;7.13;6.63;;;5.90;99.90;;;;;;5071512;28;20223;-67
2022/04/19 03:01:30;;;;;;;10.17;6.73;;;5.90;99.90;;;;;;5069389;28;20786;-66
2022/04/19 03:03:57;;;;;;;7.37;6.90;;;5.80;99.90;;;;;;5071293;28;20264;-67
2022/04/19 03:06:23;;;;;;;7.53;6.93;;;5.80;99.90;;;;;;5069662;28;20675;-67
2022/04/19 03:08:49;;;;;;;7.87;7.27;;;5.80;99.90;;;;;;5051518;28;20171;-67
2022/04/19 03:11:15;;;;;;;8.90;8.10;;;5.70;99.90;;;;;;5051395;28;20182;-67
2022/04/19 03:13:40;;;;;;;7.97;7.17;;;5.70;99.90;;;;;;5068174;28;20181;-66
2022/04/19 03:16:06;;;;;;;7.80;7.27;;;5.70;99.90;;;;;;5070703;28;20205;-65
2022/04/19 03:18:32;;;;;;;7.90;7.30;;;5.70;99.90;;;;;;5071621;28;20253;-66
2022/04/19 03:21:01;;;;;;;7.10;6.60;;;5.60;99.90;;;;;;5069704;28;20251;-66
2022/04/19 03:28:56;;;;;;;8.20;7.47;;;5.50;99.90;;;;;;5070866;28;20240;-66
2022/04/19 03:31:24;;;;;;;7.23;6.73;;;5.40;99.90;;;;;;5071219;28;20190;-67
2022/04/19 03:33:53;;;;;;;7.93;7.43;;;5.40;99.90;;;;;;5071159;28;20245;-65
2022/04/19 03:36:22;;;;;;;7.43;6.93;;;5.30;99.90;;;;;;5070707;28;20288;-66
2022/04/19 03:38:48;;;;;;;8.90;8.20;;;5.30;99.90;;;;;;5071254;28;20170;-66
2022/04/19 03:41:13;;;;;;;8.10;7.50;;;5.30;99.90;;;;;;5070899;28;20984;-66
2022/04/19 03:43:41;;;;;;;7.97;7.43;;;5.30;99.90;;;;;;5069109;28;20272;-65
2022/04/19 03:46:09;;;;;;;8.20;7.50;;;5.30;99.90;;;;;;5070682;28;20229;-66
2022/04/19 03:48:35;;;;;;;8.83;8.13;;;5.20;99.90;;;;;;5071122;28;20539;-66
2022/04/19 03:51:03;;;;;;;8.30;7.70;;;5.20;99.90;;;;;;5070885;28;20178;-66
2022/04/19 03:53:29;;;;;;;9.43;8.73;;;5.20;99.90;;;;;;5069762;28;20181;-66
2022/04/19 03:55:54;;;;;;;9.10;8.43;;;5.20;99.90;;;;;;5072225;28;20672;-66
2022/04/19 03:58:20;;;;;;;8.03;7.53;;;5.20;99.90;;;;;;5074711;28;20265;-66
2022/04/19 04:00:46;;;;;;;8.23;7.67;;;5.20;99.90;;;;;;5074717;28;20663;-66
2022/04/19 04:03:12;;;;;;;7.97;7.47;;;5.10;99.90;;;;;;5074631;28;20167;-66
2022/04/19 04:05:38;;;;;;;8.37;7.70;;;5.10;99.90;;;;;;5074482;28;20186;-66
2022/04/19 04:08:04;;;;;;;7.93;7.43;;;5.10;99.90;;;;;;5074491;28;20178;-66
2022/04/19 04:10:30;;;;;;;9.00;8.30;;;5.10;99.90;;;;;;5074048;28;20177;-66
2022/04/19 04:12:57;;;;;;;8.37;7.57;;;5.10;99.90;;;;;;5074263;28;20174;-66
2022/04/19 04:15:22;;;;;;;10.73;7.57;;;5.10;99.90;;;;;;5072817;28;20220;-66
2022/04/19 04:17:48;;;;;;;8.63;7.93;;;5.10;99.90;;;;;;5074372;28;20170;-66
2022/04/19 04:20:14;;;;;;;9.00;8.10;;;5.00;99.90;;;;;;5074221;28;20233;-66
2022/04/19 04:22:39;;;;;;;8.20;7.60;;;5.10;99.90;;;;;;5074491;28;20248;-66
2022/04/19 04:25:05;;;;;;;7.93;7.33;;;5.00;99.90;;;;;;5077654;28;20194;-66
2022/04/19 04:27:31;;;;;;;8.20;7.50;;;4.90;99.90;;;;;;5073106;28;20228;-66
2022/04/19 04:29:56;;;;;;;8.23;7.73;;;4.90;99.90;;;;;;5072660;28;20182;-65
2022/04/19 04:32:22;;;;;;;8.73;8.03;;;4.80;99.90;;;;;;5074282;28;20166;-66
2022/04/19 04:34:48;;;;;;;9.57;8.77;;;4.80;99.90;;;;;;5073840;28;20198;-67
2022/04/19 04:37:13;;;;;;;8.13;7.53;;;4.80;99.90;;;;;;5073411;28;20188;-67
2022/04/19 04:39:39;;;;;;;8.70;8.00;;;4.80;99.90;;;;;;5084616;28;20202;-67
2022/04/19 04:42:05;;;;;;;8.17;7.63;;;4.80;99.90;;;;;;5086292;28;20166;-67
2022/04/19 04:44:31;;;;;;;8.23;7.53;;;4.90;99.90;;;;;;5083365;28;20181;-67
2022/04/19 04:49:40;;;;;;;8.20;7.53;;;5.00;99.90;;;;;;5073677;28;20319;-67
2022/04/19 04:52:12;;;;;;;7.60;7.13;;;5.00;99.90;;;;;;5072503;28;20193;-66
2022/04/19 04:54:39;;;;;;;7.93;7.43;;;5.00;99.90;;;;;;5072989;28;20206;-67
2022/04/19 04:57:06;;;;;;;8.37;7.67;;;5.10;99.90;;;;;;5073434;28;20677;-67
2022/04/19 04:59:33;;;;;;;9.10;8.50;;;5.20;99.90;;;;;;5073818;28;20198;-67
2022/04/19 05:01:59;;;;;;;8.03;7.43;;;5.30;99.90;;;;;;5073197;28;20527;-66
2022/04/19 05:04:25;;;;;;;7.43;6.97;;;5.30;99.90;;;;;;5072098;28;20746;-65
2022/04/19 05:06:50;;;;;;;8.17;7.60;;;5.40;99.90;;;;;;5073008;28;20178;-66
2022/04/19 05:09:17;;;;;;;8.50;7.80;;;5.40;99.90;;;;;;5072533;28;20186;-66
2022/04/19 05:11:46;;;;;;;8.87;8.07;;;5.50;99.90;;;;;;5073501;28;20193;-67
2022/04/19 05:14:12;;;;;;;9.27;8.47;;;5.60;99.90;;;;;;5072253;28;20185;-67
2022/04/19 05:16:38;;;;;;;9.07;8.30;;;5.60;99.90;;;;;;5069480;28;20239;-67
2022/04/19 05:19:04;;;;;;;8.70;7.90;;;5.70;99.90;;;;;;5072151;28;20640;-67
2022/04/19 05:21:30;;;;;;;8.57;7.97;;;5.80;99.90;;;;;;5073158;28;20170;-66
2022/04/19 05:23:55;;;;;;;8.50;7.80;;;5.90;99.90;;;;;;5072435;28;20174;-67
2022/04/19 05:26:23;;;;;;;8.73;8.03;;;6.00;99.90;;;;;;5071525;28;20655;-66
2022/04/19 05:28:49;;;;;;;9.30;8.50;;;6.10;99.90;;;;;;5072708;28;20178;-66
2022/04/19 05:31:14;;;;;;;8.97;8.27;;;6.20;99.90;;;;;;5071588;28;20178;-66
2022/04/19 05:33:40;;;;;;;10.17;8.90;;;6.40;99.90;;;;;;5072894;28;20178;-66
2022/04/19 05:36:06;;;;;;;9.13;8.37;;;6.50;99.90;;;;;;5072428;28;20189;-66
2022/04/19 05:38:32;;;;;;;9.23;8.37;;;6.50;99.90;;;;;;5070841;28;20184;-66
2022/04/19 05:40:58;;;;;;;9.33;8.53;;;6.60;99.90;;;;;;5072815;28;20208;-67
2022/04/19 05:43:25;;;;;;;9.77;8.90;;;6.70;99.90;;;;;;5071404;28;20174;-66
2022/04/19 05:45:50;;;;;;;9.73;8.70;;;6.80;99.90;;;;;;5063427;28;20211;-66
2022/04/19 05:48:16;;;;;;;12.67;8.63;;;6.90;99.90;;;;;;5065795;28;20181;-66
2022/04/19 05:50:42;;;;;;;8.53;7.83;;;7.10;99.90;;;;;;5071647;28;20550;-66
2022/04/19 05:53:08;;;;;;;9.30;8.50;;;7.20;99.90;;;;;;5072768;28;20598;-66
2022/04/19 05:55:33;;;;;;;14.00;7.80;;;7.30;99.90;;;;;;5069837;28;20194;-66
2022/04/19 05:57:59;;;;;;;9.47;7.80;;;7.50;99.90;;;;;;5071184;28;20224;-66
2022/04/19 06:00:25;;;;;;;7.50;7.00;;;7.80;99.90;;;;;;5072322;28;20198;-66
2022/04/19 06:05:35;;;;;;;6.57;5.97;;;8.90;99.90;;;;;;5071274;28;20732;-66
2022/04/19 06:08:01;;;;;;;7.13;6.53;;;9.70;99.90;;;;;;5072471;28;20260;-66
2022/04/19 06:10:26;;;;;;;9.87;6.33;;;10.50;99.90;;;;;;5072428;28;20173;-66
2022/04/19 06:12:52;;;;;;;10.23;6.57;;;11.30;99.90;;;;;;5070298;28;20243;-66
2022/04/19 06:15:18;;;;;;;6.30;5.80;;;12.10;99.90;;;;;;5071592;28;20190;-66
2022/04/19 06:17:43;;;;;;;6.77;6.27;;;12.80;99.90;;;;;;5070497;28;20205;-66
2022/04/19 06:20:10;;;;;;;6.50;5.50;;;13.20;99.90;;;;;;5070991;28;20206;-67
2022/04/19 06:22:36;;;;;;;5.23;4.87;;;13.70;99.90;;;;;;5070800;28;20178;-67
2022/04/19 06:25:01;;;;;;;5.70;5.23;;;14.10;99.90;;;;;;5071265;28;20186;-67
2022/04/19 06:27:27;;;;;;;5.67;5.17;;;14.60;99.90;;;;;;5070838;28;20265;-67
2022/04/19 06:29:53;;;;;;;5.60;5.00;;;15.10;99.90;;;;;;5071945;28;20181;-67
2022/04/19 06:32:19;;;;;;;5.30;4.90;;;15.60;99.90;;;;;;5070167;28;20689;-67
2022/04/19 06:34:45;;;;;;;5.20;4.80;;;15.90;99.90;;;;;;5069386;28;20247;-67
2022/04/19 06:37:10;;;;;;;6.63;5.93;;;16.40;99.90;;;;;;5071551;28;20265;-67
2022/04/19 06:39:36;;;;;;;5.30;4.80;;;16.90;99.90;;;;;;5070932;28;20208;-67
2022/04/19 06:42:02;;;;;;;5.67;5.20;;;17.30;99.90;;;;;;5062609;28;20632;-67
2022/04/19 06:44:28;;;;;;;5.30;4.80;;;17.70;99.90;;;;;;5051263;28;20167;-68
2022/04/19 06:46:53;;;;;;;5.97;5.10;;;18.10;99.90;;;;;;5061824;28;20182;-67
2022/04/19 06:49:19;;;;;;;5.57;5.18;;;18.30;99.90;;;;;;5071382;28;20185;-66
2022/04/19 06:51:45;;;;;;;5.30;4.82;;;18.70;99.90;;;;;;5071981;28;20185;-67
2022/04/19 06:54:12;;;;;;;6.00;5.40;;;19.10;99.90;;;;;;5071870;28;20213;-67
2022/04/19 06:56:38;;;;;;;5.55;5.03;;;19.00;99.90;;;;;;5071288;28;20660;-67
2022/04/19 06:59:03;;;;;;;5.38;4.88;;;19.40;99.90;;;;;;5071060;28;20190;-67
2022/04/19 07:01:29;;;;;;;7.88;5.10;;;19.70;99.90;;;;;;5069043;28;20283;-68
2022/04/19 07:03:55;;;;;;;5.15;4.75;;;20.10;99.90;;;;;;5056926;28;20200;-66
2022/04/19 07:06:21;;;;;;;5.72;5.03;;;20.40;99.90;;;;;;5071984;28;20190;-68
2022/04/19 07:08:47;;;;;;;6.63;5.05;;;20.70;99.90;;;;;;5071433;28;20246;-68
2022/04/19 07:11:15;;;;;;;5.15;4.75;;;20.90;99.90;;;;;;5071553;28;20177;-68
2022/04/19 07:13:41;;;;;;;5.20;4.70;;;21.20;99.90;;;;;;5071289;28;20701;-68
2022/04/19 07:16:07;;;;;;;4.65;4.18;;;21.50;99.90;;;;;;5069952;28;20198;-68
2022/04/19 07:18:33;;;;;;;5.35;4.85;;;21.90;99.50;;;;;;5071478;28;20239;-67
2022/04/19 07:26:40;;;;;;;6.53;5.20;;;22.80;95.30;;;;;;5051486;28;20221;-67
2022/04/19 07:29:12;;;;;;;7.30;5.40;;;22.80;97.50;;;;;;5066095;28;20635;-68
2022/04/19 07:31:49;;;;;;;6.05;5.38;;;22.90;96.80;;;;;;5075192;28;20241;-68
2022/04/19 07:34:15;;;;;;;8.00;5.53;;;23.10;93.90;;;;;;5073398;28;20263;-64
2022/04/19 07:36:41;;;;;;;5.90;5.40;;;23.10;92.50;;;;;;5070267;28;20177;-68
2022/04/19 07:39:13;;;;;;;6.18;5.47;;;23.40;93.10;;;;;;5064281;28;20711;-68
2022/04/19 07:41:40;;;;;;;6.07;5.57;;;23.90;92.90;;;;;;5073001;28;20177;-67
2022/04/19 07:44:08;;;;;;;5.75;5.22;;;24.00;87.50;;;;;;5075235;28;20174;-68
2022/04/19 07:46:35;;;;;;;5.85;5.07;;;23.80;89.20;;;;;;5067956;28;20206;-66
2022/04/19 07:49:02;;;;;;;6.10;5.25;;;23.60;90.50;;;;;;5073146;28;20543;-67
2022/04/19 07:51:28;;;;;;;7.05;6.43;;;23.70;87.20;;;;;;5074700;28;20170;-67
2022/04/19 07:53:54;;;;;;;6.13;5.53;;;23.20;82.70;;;;;;5074092;28;20223;-66
2022/04/19 07:56:19;;;;;;;7.63;6.03;;;22.60;87.90;;;;;;5089718;28;20260;-67
2022/04/19 07:58:47;;;;;;;7.18;6.47;;;22.60;90.30;;;;;;5058077;28;20175;-67
2022/04/19 08:01:14;;;;;;;8.10;6.45;;;22.80;89.40;;;;;;5073193;28;20221;-66
2022/04/19 08:03:40;;;;;;;6.70;6.10;;;23.00;83.60;;;;;;5073510;28;20181;-67
2022/04/19 08:06:05;;;;;;;6.72;6.13;;;23.10;88.50;;;;;;5072522;28;20189;-67
2022/04/19 08:08:31;;;;;;;6.97;5.80;;;23.10;82.40;;;;;;5074352;28;20173;-65
2022/04/19 08:10:57;;;;;;;6.47;5.88;;;23.20;85.70;;;;;;5074606;28;20354;-64
2022/04/19 08:13:24;;;;;;;7.13;6.38;;;22.90;81.00;;;;;;5067815;28;20710;-64
2022/04/19 08:15:49;;;;;;;6.32;5.70;;;22.80;85.10;;;;;;5073991;28;20198;-66
2022/04/19 08:18:16;;;;;;;6.45;5.70;;;22.70;81.20;;;;;;5082097;28;20242;-64
2022/04/19 08:20:42;;;;;;;9.00;5.70;;;22.90;84.20;;;;;;5089615;28;20202;-67
2022/04/19 08:23:08;;;;;;;7.53;6.15;;;23.20;84.40;;;;;;5087463;28;20175;-67
2022/04/19 08:25:35;;;;;;;6.85;5.95;;;23.20;83.20;;;;;;5061597;28;20202;-67
2022/04/19 08:28:00;;;;;;;6.57;5.97;;;23.20;85.80;;;;;;5055037;28;20174;-66
2022/04/19 08:30:26;;;;;;;7.13;6.13;;;23.40;86.10;;;;;;5054312;28;20263;-67
2022/04/19 08:32:51;;;;;;;7.13;5.72;;;23.20;83.00;;;;;;5073050;28;20416;-66
2022/04/19 08:35:18;;;;;;;6.90;5.72;;;23.20;86.90;;;;;;5072707;28;20206;-66
2022/04/19 08:37:44;;;;;;;6.18;5.57;;;23.70;86.30;;;;;;5072969;28;20182;-66
2022/04/19 08:40:12;;;;;;;8.10;5.60;;;24.40;86.00;;;;;;5073672;28;20190;-64
2022/04/19 08:42:40;;;;;;;6.85;6.15;;;24.40;82.70;;;;;;5061699;28;20181;-65
2022/04/19 08:45:08;;;;;;;6.82;6.15;;;24.70;84.10;;;;;;5053897;28;20243;-64
2022/04/19 08:47:37;;;;;;;7.28;6.57;;;24.90;85.20;;;;;;5054335;28;20185;-64
2022/04/19 08:50:19;;;;;;;7.72;6.90;;;24.80;84.00;;;;;;5053365;28;20240;-67
2022/04/19 08:52:46;;;;;;;7.97;7.18;;;25.00;84.10;;;;;;5057560;28;20212;-66
2022/04/19 08:57:56;;;;;;;7.35;6.43;;;25.70;78.50;;;;;;5073664;28;20185;-64
2022/04/19 09:00:23;;;;;;;11.38;7.28;;;25.80;78.00;;;;;;5069552;28;20211;-65
2022/04/19 09:02:50;;;;;;;12.90;7.38;;;26.00;80.10;;;;;;5073502;28;20173;-66
2022/04/19 09:05:26;;;;;;;6.93;6.22;;;26.40;77.00;;;;;;5062263;28;20195;-65
2022/04/19 09:07:54;;;;;;;6.95;6.25;;;26.30;75.50;;;;;;5052228;28;20181;-65
2022/04/19 09:10:31;;;;;;;8.55;7.65;;;26.10;76.20;;;;;;5053369;28;20235;-65
2022/04/19 09:13:05;;;;;;;8.32;6.35;;;26.20;72.40;;;;;;5053628;28;20166;-66
2022/04/19 09:15:34;;;;;;;13.10;7.30;;;26.50;74.70;;;;;;5071331;28;20226;-65
2022/04/19 09:18:00;;;;;;;8.07;7.28;;;26.50;74.00;;;;;;5073081;28;20573;-66
2022/04/19 09:20:26;;;;;;;8.05;7.25;;;26.50;66.50;;;;;;5072799;28;20255;-66
2022/04/19 09:23:21;;;;;;;7.53;6.53;;;26.20;70.20;;;;;;5073307;28;20572;-65
2022/04/19 09:25:51;;;;;;;8.88;7.20;;;26.10;66.60;;;;;;5040087;28;20302;-66
2022/04/19 09:28:18;;;;;;;8.90;7.60;;;25.70;65.00;;;;;;5056714;28;20174;-65
2022/04/19 09:30:45;;;;;;;7.80;7.00;;;25.20;65.10;;;;;;5065456;28;20261;-66
2022/04/19 09:33:12;;;;;;;9.45;7.50;;;24.90;68.60;;;;;;5072374;28;20182;-67
2022/04/19 09:35:47;;;;;;;8.32;7.28;;;25.00;69.40;;;;;;5072181;28;20276;-66
2022/04/19 09:38:13;;;;;;;8.32;7.30;;;25.10;67.30;;;;;;5072583;28;20189;-67
2022/04/19 09:40:44;;;;;;;9.25;7.60;;;25.40;69.70;;;;;;5072620;28;20206;-67
2022/04/19 09:43:16;;;;;;;7.68;6.78;;;25.50;64.60;;;;;;5072623;28;20182;-67
2022/04/19 09:45:58;;;;;;;8.73;7.20;;;25.80;69.70;;;;;;5073124;28;20867;-66
2022/04/19 09:48:37;;;;;;;8.63;7.60;;;25.80;69.90;;;;;;5072336;28;20177;-65
2022/04/19 09:51:09;;;;;;;9.07;7.68;;;25.60;66.20;;;;;;5072755;28;20268;-66
2022/04/19 09:53:48;;;;;;;8.35;7.25;;;25.50;70.40;;;;;;5071727;28;20180;-66
2022/04/19 09:56:23;;;;;;;10.10;7.40;;;25.90;72.20;;;;;;5072050;28;20298;-65
2022/04/19 09:58:50;;;;;;;10.13;7.93;;;26.20;64.40;;;;;;5078438;28;20234;-66
2022/04/19 10:09:32;;;;;;;8.65;7.45;;;27.00;65.00;;;;;;5071406;28;20236;-66
2022/04/19 10:11:58;;;;;;;10.07;7.50;;;27.10;66.80;;;;;;5072127;28;20177;-65
2022/04/19 10:14:24;;;;;;;9.57;8.38;;;27.10;68.60;;;;;;5071621;28;20180;-66
2022/04/19 10:16:49;;;;;;;8.27;7.00;;;27.30;66.60;;;;;;5071099;28;20190;-66
2022/04/19 10:19:16;;;;;;;9.05;7.60;;;27.50;66.40;;;;;;5072046;28;20718;-66
2022/04/19 10:21:44;;;;;;;8.52;7.25;;;27.70;62.70;;;;;;5072323;28;20182;-67
2022/04/19 10:24:12;;;;;;;11.70;6.95;;;27.60;64.30;;;;;;5062119;28;20210;-66
2022/04/19 10:26:56;;;;;;;8.60;6.75;;;27.90;65.30;;;;;;5065418;28;20200;-66
2022/04/19 10:29:24;;;;;;;7.78;6.80;;;27.60;63.30;;;;;;5066412;28;20643;-66
2022/04/19 10:31:54;;;;;;;9.50;7.20;;;28.00;63.20;;;;;;5066554;28;20718;-65
2022/04/19 10:34:34;;;;;;;8.88;7.95;;;27.60;61.30;;;;;;5070511;28;20258;-66
2022/04/19 10:37:11;;;;;;;8.60;7.50;;;27.10;59.50;;;;;;5069975;28;20170;-65
2022/04/19 10:40:07;;;;;;;7.88;7.07;;;26.40;60.80;;;;;;5069637;28;20519;-66
2022/04/19 10:42:38;;;;;;;9.65;8.00;;;25.70;61.70;;;;;;5059563;28;20263;-66
2022/04/19 10:45:15;;;;;;;7.80;7.00;;;25.80;57.40;;;;;;5071197;28;20519;-66
2022/04/19 10:47:56;;;;;;;7.03;6.32;;;25.70;60.50;;;;;;5070795;28;20173;-66
2022/04/19 10:50:30;;;;;;;7.00;6.40;;;25.70;61.20;;;;;;5070130;28;20270;-66
2022/04/19 10:53:00;;;;;;;6.63;6.03;;;25.30;61.60;;;;;;5071858;28;20488;-66
2022/04/19 10:55:30;;;;;;;6.05;5.55;;;25.50;60.10;;;;;;5071082;28;20194;-66
2022/04/19 11:00:42;;;;;;;7.13;5.85;;;25.30;56.00;;;;;;5071202;28;20209;-66
2022/04/19 11:03:11;;;;;;;6.75;6.18;;;24.60;55.70;;;;;;5071422;28;20182;-66
2022/04/19 11:05:44;;;;;;;6.40;5.80;;;24.00;55.00;;;;;;5070524;28;20222;-66
2022/04/19 11:08:19;;;;;;;6.60;6.00;;;23.90;58.10;;;;;;5051529;28;20163;-66
2022/04/19 11:10:45;;;;;;;5.70;5.20;;;24.20;58.90;;;;;;5053662;28;20179;-66
2022/04/19 11:13:14;;;;;;;6.20;5.28;;;24.50;57.20;;;;;;5071095;28;20186;-66
2022/04/19 11:15:42;;;;;;;5.82;5.32;;;24.30;55.00;;;;;;5071118;28;20237;-65
2022/04/19 11:18:30;;;;;;;5.65;5.15;;;24.20;56.70;;;;;;5071391;28;20174;-65
2022/04/19 11:21:04;;;;;;;6.45;5.90;;;24.50;58.30;;;;;;5070125;28;20280;-65
2022/04/19 11:23:44;;;;;;;5.43;5.03;;;24.30;54.30;;;;;;5071396;28;20177;-65
2022/04/19 11:26:33;;;;;;;5.93;5.38;;;24.80;61.20;;;;;;5070220;28;20204;-65
2022/04/19 11:29:11;;;;;;;5.97;5.38;;;24.90;54.70;;;;;;5071159;28;20216;-66
2022/04/19 11:31:43;;;;;;;5.43;4.93;;;25.00;55.80;;;;;;5071453;28;20170;-65
2022/04/19 11:34:16;;;;;;;5.85;5.35;;;25.00;54.80;;;;;;5070957;28;20527;-65
2022/04/19 11:36:42;;;;;;;7.00;6.35;;;25.00;54.50;;;;;;5070990;28;20174;-66
2022/04/19 11:39:08;;;;;;;5.03;4.63;;;24.90;54.00;;;;;;5071183;28;20658;-65
2022/04/19 11:46:51;;;;;;;5.32;4.82;;;24.10;56.10;;;;;;5070783;28;20166;-65
2022/04/19 11:49:20;;;;;;;4.82;4.43;;;23.90;57.40;;;;;;5071057;28;20166;-64
2022/04/19 11:51:46;;;;;;;4.97;4.57;;;23.70;54.30;;;;;;5070898;28;20170;-65
2022/04/19 11:54:39;;;;;;;5.10;4.70;;;23.90;54.30;;;;;;5070619;28;20190;-67
2022/04/19 11:57:10;;;;;;;5.70;5.18;;;23.90;58.40;;;;;;5067319;28;20186;-65
2022/04/19 11:59:39;;;;;;;6.78;4.85;;;23.90;53.30;;;;;;5070211;28;20721;-65
2022/04/19 12:02:17;;;;;;;4.40;4.10;;;24.00;57.10;;;;;;5070713;28;20178;-66
2022/04/19 12:04:54;;;;;;;4.57;4.18;;;24.20;54.20;;;;;;5070748;28;20185;-66
2022/04/19 12:07:20;;;;;;;4.30;4.00;;;24.40;54.40;;;;;;5069364;28;20704;-65
2022/04/19 12:09:48;;;;;;;4.90;4.50;;;24.20;51.50;;;;;;5070780;28;20182;-66
2022/04/19 12:12:14;;;;;;;5.38;4.40;;;24.10;51.50;;;;;;5070612;28;20291;-66
2022/04/19 12:14:40;;;;;;;5.70;5.20;;;24.00;55.30;;;;;;5068809;28;20292;-66
2022/04/19 12:17:06;;;;;;;4.75;4.35;;;24.10;54.00;;;;;;5072963;28;20181;-65
2022/04/19 12:19:35;;;;;;;4.75;4.35;;;24.60;53.10;;;;;;5073939;28;20292;-67
2022/04/19 12:22:02;;;;;;;6.97;5.15;;;25.10;59.20;;;;;;5073969;28;20175;-66
2022/04/19 12:24:29;;;;;;;8.93;5.45;;;25.30;58.20;;;;;;5073990;28;20173;-68
2022/04/19 12:27:06;;;;;;;5.57;5.07;;;25.20;58.40;;;;;;5073144;28;20607;-66
2022/04/19 12:29:32;;;;;;;6.72;5.40;;;25.10;59.00;;;;;;5081274;28;20734;-66
2022/04/19 12:32:00;;;;;;;6.75;6.10;;;24.90;59.50;;;;;;5077227;28;20174;-66
2022/04/19 12:34:39;;;;;;;5.78;5.10;;;24.60;59.10;;;;;;5088686;28;20572;-67
2022/04/19 12:37:10;;;;;;;5.97;5.00;;;24.70;61.20;;;;;;5069441;28;20174;-67
2022/04/19 12:39:36;;;;;;;6.85;5.55;;;24.70;61.30;;;;;;5070818;28;20256;-65
2022/04/19 12:42:19;;;;;;;6.10;5.50;;;24.70;61.10;;;;;;5074454;28;20198;-65
2022/04/19 12:45:05;;;;;;;6.40;5.82;;;24.30;58.90;;;;;;5073398;28;20206;-66
2022/04/19 12:47:31;;;;;;;7.90;5.30;;;24.20;64.20;;;;;;5072859;28;20245;-66
2022/04/19 12:49:57;;;;;;;7.40;5.75;;;24.20;59.50;;;;;;5071703;28;20265;-65
2022/04/19 12:52:31;;;;;;;6.38;5.72;;;24.40;60.60;;;;;;5072139;28;20174;-66
2022/04/19 12:54:59;;;;;;;6.80;5.57;;;24.20;59.30;;;;;;5073216;28;20190;-66
2022/04/19 12:57:25;;;;;;;6.65;5.97;;;23.90;61.20;;;;;;5073962;28;20178;-67
2022/04/19 12:59:51;;;;;;;12.00;7.22;;;23.60;62.90;;;;;;5073015;28;20213;-66
2022/04/19 13:02:18;;;;;;;6.38;5.78;;;23.40;60.20;;;;;;5073402;28;20544;-64
2022/04/19 13:04:45;;;;;;;5.80;5.30;;;23.30;64.70;;;;;;5073426;28;20194;-65
2022/04/19 13:12:39;;;;;;;6.32;5.68;;;23.80;62.30;;;;;;5053603;28;20249;-65
2022/04/19 13:15:06;;;;;;;5.72;5.22;;;23.50;63.30;;;;;;5054461;28;20246;-65
2022/04/19 13:17:34;;;;;;;6.53;5.28;;;23.70;66.10;;;;;;5073466;28;20641;-67
2022/04/19 13:20:02;;;;;;;6.80;5.70;;;24.00;62.50;;;;;;5073403;28;20190;-66
2022/04/19 13:22:28;;;;;;;5.82;5.22;;;24.00;60.90;;;;;;5090731;28;20180;-66
2022/04/19 13:24:54;;;;;;;5.45;4.90;;;23.90;61.20;;;;;;5093162;28;20181;-66
2022/04/19 13:27:20;;;;;;;7.30;5.40;;;23.80;64.50;;;;;;5092124;28;20172;-65
2022/04/19 13:29:45;;;;;;;5.53;4.95;;;23.60;63.60;;;;;;5093348;28;20177;-65
2022/04/19 13:32:12;;;;;;;5.65;5.15;;;23.20;60.30;;;;;;5074792;28;20703;-66
2022/04/19 13:34:38;;;;;;;6.25;5.75;;;22.90;65.00;;;;;;5072553;28;20198;-65
2022/04/19 13:37:04;;;;;;;6.95;5.90;;;23.00;64.90;;;;;;5071973;28;20184;-65